createdAt,value
2018-08-03T00:00:32.708Z,21.24
2018-08-03T00:03:04.806Z,21.27
2018-08-03T00:05:36.819Z,21.25
2018-08-03T00:08:08.964Z,21.29
2018-08-03T00:10:40.986Z,21.23
2018-08-03T00:13:13.015Z,21.28
2018-08-03T00:15:45.182Z,21.33
2018-08-03T00:18:17.204Z,21.28
2018-08-03T00:20:49.206Z,21.24
2018-08-03T00:23:21.271Z,21.17
2018-08-03T00:25:53.401Z,21.15
2018-08-03T00:28:25.455Z,21.14
2018-08-03T00:30:57.498Z,21.17
2018-08-03T00:33:29.490Z,21.14
2018-08-03T00:36:01.540Z,21.12
2018-08-03T00:38:33.573Z,20.98
2018-08-03T00:41:05.572Z,21.09
2018-08-03T00:43:37.606Z,21.05
2018-08-03T00:46:09.709Z,20.96
2018-08-03T00:48:41.754Z,20.85
2018-08-03T00:51:13.767Z,20.68
2018-08-03T00:53:45.791Z,20.63
2018-08-03T00:56:17.860Z,20.68
2018-08-03T00:58:50.169Z,20.70
2018-08-03T01:01:22.198Z,20.68
2018-08-03T01:03:54.190Z,20.53
2018-08-03T01:06:26.183Z,20.57
2018-08-03T01:08:58.241Z,20.51
2018-08-03T01:11:30.223Z,20.48
2018-08-03T01:14:02.219Z,20.50
2018-08-03T01:16:39.259Z,20.39
2018-08-03T01:19:13.237Z,20.39
2018-08-03T01:21:45.282Z,20.30
2018-08-03T01:24:17.273Z,20.24
2018-08-03T01:26:49.339Z,20.24
2018-08-03T01:29:21.396Z,20.23
2018-08-03T01:31:53.406Z,20.28
2018-08-03T01:34:25.403Z,20.36
2018-08-03T01:36:57.357Z,20.33
2018-08-03T01:39:29.318Z,20.24
2018-08-03T01:42:01.319Z,20.16
2018-08-03T01:44:33.389Z,20.05
2018-08-03T01:47:05.462Z,20.06
2018-08-03T01:49:37.543Z,20.04
2018-08-03T01:52:09.552Z,20.09
2018-08-03T01:54:41.534Z,20.18
2018-08-03T01:57:13.524Z,20.15
2018-08-03T01:59:45.618Z,20.09
2018-08-03T02:02:17.710Z,20.01
2018-08-03T02:04:49.675Z,19.94
2018-08-03T02:07:21.698Z,19.90
2018-08-03T02:09:53.667Z,19.86
2018-08-03T02:12:25.784Z,19.82
2018-08-03T02:14:57.766Z,19.88
2018-08-03T02:17:29.776Z,19.94
2018-08-03T02:20:01.803Z,19.88
2018-08-03T02:22:33.846Z,19.80
2018-08-03T02:25:06.284Z,19.79
2018-08-03T02:27:38.284Z,19.77
2018-08-03T02:30:10.310Z,19.79
2018-08-03T02:32:42.366Z,19.76
2018-08-03T02:35:14.372Z,19.76
2018-08-03T02:37:46.514Z,19.74
2018-08-03T02:40:18.535Z,19.79
2018-08-03T02:42:50.765Z,19.77
2018-08-03T02:45:22.933Z,19.71
2018-08-03T02:47:55.020Z,19.72
2018-08-03T02:50:27.029Z,19.75
2018-08-03T02:52:59.033Z,19.74
2018-08-03T04:17:33.246Z,19.54
2018-08-03T04:20:05.426Z,19.62
2018-08-03T04:22:37.433Z,19.69
2018-08-03T04:25:09.440Z,19.75
2018-08-03T04:27:41.427Z,19.84
2018-08-03T04:30:13.470Z,19.96
2018-08-03T04:32:45.458Z,20.06
2018-08-03T04:35:17.475Z,20.21
2018-08-03T04:37:49.469Z,20.24
2018-08-03T04:40:21.772Z,20.25
2018-08-03T04:42:53.745Z,20.25
2018-08-03T04:45:25.800Z,20.24
2018-08-03T04:47:57.775Z,20.29
2018-08-03T04:50:29.927Z,20.27
2018-08-03T04:53:01.894Z,20.28
2018-08-03T04:55:33.904Z,20.28
2018-08-03T04:58:05.930Z,20.38
2018-08-03T05:00:37.917Z,20.45
2018-08-03T05:03:09.949Z,20.53
2018-08-03T05:05:41.946Z,20.60
2018-08-03T05:08:13.910Z,20.73
2018-08-03T05:10:45.966Z,20.98
2018-08-03T05:13:17.926Z,21.33
2018-08-03T05:15:50.520Z,21.36
2018-08-03T05:18:22.522Z,21.41
2018-08-03T05:20:54.583Z,21.24
2018-08-03T05:23:26.608Z,21.38
2018-08-03T05:25:58.657Z,21.39
2018-08-03T05:28:30.750Z,21.48
2018-08-03T05:31:02.961Z,21.55
2018-08-03T05:33:35.271Z,22.34
2018-08-03T05:36:07.327Z,23.09
2018-08-03T05:38:39.294Z,23.95
2018-08-03T05:41:11.335Z,24.50
2018-08-03T05:43:43.315Z,25.24
2018-08-03T05:46:15.392Z,25.64
2018-08-03T05:48:47.521Z,26.59
2018-08-03T05:51:19.507Z,26.47
2018-08-03T05:53:51.515Z,26.61
2018-08-03T05:56:23.505Z,26.93
2018-08-03T05:58:55.503Z,27.98
2018-08-03T06:01:27.518Z,27.09
2018-08-03T06:03:59.521Z,26.87
2018-08-03T06:06:31.549Z,27.08
2018-08-03T06:09:06.363Z,28.07
2018-08-03T06:11:38.370Z,28.16
2018-08-03T06:14:10.395Z,27.58
2018-08-03T06:16:42.392Z,28.16
2018-08-03T06:19:14.356Z,28.64
2018-08-03T06:21:46.375Z,29.37
2018-08-03T06:24:18.382Z,29.63
2018-08-03T06:26:50.375Z,29.44
2018-08-03T06:29:22.376Z,28.67
2018-08-03T06:31:54.448Z,28.92
2018-08-03T06:34:26.526Z,28.51
2018-08-03T06:36:58.560Z,28.33
2018-08-03T06:39:30.607Z,29.24
2018-08-03T06:42:02.618Z,29.75
2018-08-03T06:44:34.634Z,30.28
2018-08-03T06:47:06.638Z,31.28
2018-08-03T06:49:38.609Z,32.35
2018-08-03T06:52:10.618Z,32.66
2018-08-03T06:54:42.705Z,31.96
2018-08-03T06:57:14.674Z,31.36
2018-08-03T06:59:46.679Z,31.07
2018-08-03T07:02:19.043Z,31.31
2018-08-03T07:04:51.147Z,32.19
2018-08-03T07:07:23.255Z,32.64
2018-08-03T07:09:55.296Z,33.10
2018-08-03T07:12:27.291Z,32.67
2018-08-03T07:14:59.392Z,32.62
2018-08-03T07:17:31.445Z,32.71
2018-08-03T07:20:04.168Z,33.16
2018-08-03T07:22:36.153Z,33.35
2018-08-03T07:25:08.191Z,32.70
2018-08-03T07:27:40.287Z,33.41
2018-08-03T07:30:12.357Z,34.31
2018-08-03T07:32:44.375Z,34.61
2018-08-03T07:35:16.389Z,33.81
2018-08-03T07:37:48.415Z,33.31
2018-08-03T07:40:20.527Z,33.32
2018-08-03T07:42:52.566Z,33.36
2018-08-03T07:45:25.347Z,33.78
2018-08-03T07:47:58.282Z,33.38
2018-08-03T07:50:30.293Z,33.57
2018-08-03T07:53:02.339Z,34.40
2018-08-03T07:55:34.379Z,33.90
2018-08-03T07:58:06.393Z,33.83
2018-08-03T08:00:39.546Z,33.75
2018-08-03T08:03:11.580Z,33.90
2018-08-03T08:05:43.606Z,33.96
2018-08-03T08:08:16.597Z,34.08
2018-08-03T08:10:48.566Z,34.50
2018-08-03T08:13:20.646Z,34.79
2018-08-03T08:15:52.690Z,35.48
2018-08-03T08:18:24.678Z,35.21
2018-08-03T08:20:57.743Z,36.29
2018-08-03T08:23:29.807Z,36.08
2018-08-03T08:26:01.812Z,36.34
2018-08-03T08:28:33.843Z,36.28
2018-08-03T08:31:06.019Z,36.19
2018-08-03T08:33:38.067Z,36.60
2018-08-03T08:36:10.074Z,36.85
2018-08-03T08:38:42.091Z,37.10
2018-08-03T08:41:14.175Z,37.66
2018-08-03T08:43:46.314Z,37.92
2018-08-03T08:46:18.272Z,38.24
2018-08-03T08:48:50.339Z,38.38
2018-08-03T08:51:22.455Z,38.90
2018-08-03T08:53:54.459Z,38.95
2018-08-03T08:56:26.491Z,38.73
2018-08-03T08:58:58.551Z,38.75
2018-08-03T09:01:30.584Z,38.18
2018-08-03T09:04:02.623Z,37.60
2018-08-03T09:06:34.615Z,38.36
2018-08-03T09:09:08.886Z,38.89
2018-08-03T09:11:40.926Z,38.55
2018-08-03T09:14:12.918Z,37.96
2018-08-03T09:16:45.015Z,38.17
2018-08-03T09:19:17.043Z,36.44
2018-08-03T09:21:49.368Z,37.82
2018-08-03T09:24:21.384Z,38.35
2018-08-03T09:26:53.528Z,38.70
2018-08-03T09:29:25.536Z,39.07
2018-08-03T09:31:57.523Z,38.15
2018-08-03T09:34:29.563Z,36.48
2018-08-03T09:37:01.622Z,37.62
2018-08-03T09:39:33.699Z,38.25
2018-08-03T09:42:05.740Z,38.67
2018-08-03T09:44:37.762Z,38.33
2018-08-03T09:47:09.802Z,37.96
2018-08-03T09:49:41.827Z,37.66
2018-08-03T09:52:13.876Z,37.03
2018-08-03T09:54:45.850Z,38.07
2018-08-03T09:57:17.872Z,37.74
2018-08-03T09:59:49.896Z,37.68
2018-08-03T10:02:21.878Z,37.29
2018-08-03T10:04:53.874Z,36.99
2018-08-03T10:07:25.956Z,37.08
2018-08-03T10:09:57.942Z,37.34
2018-08-03T10:12:30.016Z,37.65
2018-08-03T10:15:02.002Z,37.43
2018-08-03T10:17:33.999Z,37.10
2018-08-03T10:20:06.047Z,37.02
2018-08-03T10:22:38.231Z,36.60
2018-08-03T10:25:10.276Z,37.16
2018-08-03T10:27:42.251Z,37.24
2018-08-03T10:30:14.299Z,37.05
2018-08-03T10:32:46.286Z,36.51
2018-08-03T10:35:18.363Z,36.24
2018-08-03T10:37:50.413Z,36.66
2018-08-03T10:40:22.504Z,37.63
2018-08-03T10:42:54.538Z,37.96
2018-08-03T10:45:26.558Z,38.15
2018-08-03T10:47:58.543Z,36.77
2018-08-03T10:50:30.866Z,36.07
2018-08-03T10:53:04.176Z,35.13
2018-08-03T10:55:36.284Z,35.78
2018-08-03T10:58:08.379Z,35.73
2018-08-03T11:00:41.527Z,37.40
2018-08-03T11:03:13.535Z,37.52
2018-08-03T11:05:45.598Z,38.22
2018-08-03T11:08:17.591Z,38.64
2018-08-03T11:10:49.663Z,36.80
2018-08-03T11:13:21.707Z,37.15
2018-08-03T11:15:53.724Z,37.87
2018-08-03T11:18:25.771Z,37.53
2018-08-03T11:20:57.796Z,38.13
2018-08-03T11:23:29.802Z,37.92
2018-08-03T11:26:01.819Z,37.66
2018-08-03T11:28:33.872Z,37.55
2018-08-03T11:31:05.946Z,38.50
2018-08-03T11:33:37.980Z,38.84
2018-08-03T11:36:10.043Z,39.14
2018-08-03T11:38:42.101Z,39.40
2018-08-03T11:41:14.163Z,38.82
2018-08-03T11:43:46.224Z,39.26
2018-08-03T11:46:18.287Z,39.32
2018-08-03T11:48:50.327Z,39.93
2018-08-03T11:51:22.339Z,39.37
2018-08-03T11:53:54.332Z,40.01
2018-08-03T11:56:26.395Z,40.47
2018-08-03T11:58:58.408Z,40.14
2018-08-03T12:01:30.503Z,40.16
2018-08-03T12:04:02.551Z,39.04
2018-08-03T12:06:34.686Z,39.58
2018-08-03T12:09:07.042Z,39.47
2018-08-03T12:11:39.093Z,40.77
2018-08-03T12:14:11.158Z,41.41
2018-08-03T12:16:43.182Z,41.63
2018-08-03T12:19:15.185Z,41.41
2018-08-03T12:21:47.175Z,41.48
2018-08-03T12:24:19.179Z,42.01
2018-08-03T12:26:51.314Z,42.28
2018-08-03T12:29:23.395Z,42.17
2018-08-03T12:31:55.489Z,41.35
2018-08-03T12:34:27.495Z,40.79
2018-08-03T12:36:59.583Z,41.71
2018-08-03T12:39:31.548Z,43.72
2018-08-03T12:42:03.561Z,43.32
2018-08-03T12:44:35.566Z,41.56
2018-08-03T12:47:07.661Z,39.15
2018-08-03T12:49:39.770Z,38.12
2018-08-03T12:52:11.824Z,38.73
2018-08-03T12:54:43.851Z,39.10
2018-08-03T12:57:15.876Z,40.66
2018-08-03T12:59:47.956Z,40.94
2018-08-03T13:02:20.068Z,42.52
2018-08-03T13:04:52.063Z,43.13
2018-08-03T13:07:24.203Z,41.04
2018-08-03T13:09:56.099Z,39.79
2018-08-03T13:12:28.300Z,40.44
2018-08-03T13:15:00.468Z,41.65
2018-08-03T13:17:32.451Z,42.98
2018-08-03T13:20:04.832Z,43.81
2018-08-03T13:22:36.977Z,43.27
2018-08-03T13:25:09.075Z,43.63
2018-08-03T13:27:41.122Z,43.22
2018-08-03T13:30:13.159Z,44.04
2018-08-03T13:32:45.246Z,42.54
2018-08-03T13:35:17.415Z,42.41
2018-08-03T13:37:51.003Z,42.64
2018-08-03T13:40:23.211Z,42.32
2018-08-03T13:42:55.232Z,42.75
2018-08-03T13:45:27.274Z,39.73
2018-08-03T13:47:59.330Z,38.23
2018-08-03T13:50:31.319Z,36.37
2018-08-03T13:53:03.488Z,35.93
2018-08-03T13:55:36.056Z,35.73
2018-08-03T13:58:08.112Z,36.53
2018-08-03T14:00:40.133Z,38.30
2018-08-03T14:03:12.167Z,40.10
2018-08-03T14:05:44.218Z,38.80
2018-08-03T14:08:16.325Z,39.37
2018-08-03T14:10:48.334Z,40.98
2018-08-03T14:13:20.382Z,41.43
2018-08-03T14:15:52.526Z,41.62
2018-08-03T14:18:24.543Z,42.40
2018-08-03T14:20:56.552Z,40.49
2018-08-03T14:23:28.590Z,40.25
2018-08-03T14:26:00.655Z,39.34
2018-08-03T14:28:32.699Z,40.28
2018-08-03T14:31:04.731Z,40.18
2018-08-03T14:33:36.752Z,39.21
2018-08-03T14:36:08.770Z,39.07
2018-08-03T14:38:40.863Z,39.42
2018-08-03T14:41:12.929Z,39.75
2018-08-03T14:43:45.006Z,39.56
2018-08-03T14:46:17.061Z,39.83
2018-08-03T14:48:49.077Z,40.07
2018-08-03T14:51:21.083Z,40.05
2018-08-03T14:53:54.191Z,39.96
2018-08-03T14:56:26.392Z,41.56
2018-08-03T14:58:58.463Z,40.99
2018-08-03T15:01:30.578Z,39.72
2018-08-03T15:04:02.641Z,38.24
2018-08-03T15:06:34.714Z,37.54
2018-08-03T15:09:07.955Z,37.89
2018-08-03T15:11:40.145Z,40.01
2018-08-03T15:14:12.150Z,41.68
2018-08-03T15:16:44.138Z,40.95
2018-08-03T15:19:16.146Z,38.57
2018-08-03T15:21:48.195Z,38.88
2018-08-03T15:24:20.232Z,40.52
2018-08-03T15:26:52.259Z,40.64
2018-08-03T15:29:24.313Z,39.44
2018-08-03T15:31:56.332Z,38.13
2018-08-03T15:34:28.364Z,36.61
2018-08-03T15:37:00.351Z,36.25
2018-08-03T15:39:32.500Z,35.64
2018-08-03T15:42:04.636Z,35.71
2018-08-03T15:44:36.704Z,35.75
2018-08-03T15:47:08.691Z,35.85
2018-08-03T15:49:40.706Z,35.28
2018-08-03T15:52:12.754Z,35.38
2018-08-03T15:54:44.814Z,35.99
2018-08-03T15:57:16.844Z,36.21
2018-08-03T15:59:48.918Z,36.78
2018-08-03T16:02:20.955Z,37.74
2018-08-03T16:04:52.974Z,38.51
2018-08-03T16:07:24.989Z,38.16
2018-08-03T16:09:57.051Z,38.45
2018-08-03T16:12:29.083Z,39.35
2018-08-03T16:15:01.099Z,39.64
2018-08-03T16:17:33.143Z,40.16
2018-08-03T16:20:05.259Z,40.97
2018-08-03T16:22:37.271Z,40.94
2018-08-03T16:25:09.357Z,39.25
2018-08-03T16:27:41.440Z,39.00
2018-08-03T16:30:13.496Z,39.04
2018-08-03T16:32:45.645Z,38.13
2018-08-03T16:35:17.642Z,37.60
2018-08-03T16:37:49.683Z,37.04
2018-08-03T16:40:21.746Z,37.21
2018-08-03T16:42:53.791Z,36.83
2018-08-03T16:45:25.931Z,35.97
2018-08-03T16:47:57.930Z,35.43
2018-08-03T16:50:30.030Z,35.21
2018-08-03T16:53:02.090Z,35.16
2018-08-03T16:55:34.134Z,35.17
2018-08-03T16:58:06.195Z,34.97
2018-08-03T17:00:38.195Z,34.68
2018-08-03T17:03:10.512Z,34.29
2018-08-03T17:05:42.610Z,34.09
2018-08-03T17:08:14.708Z,34.15
2018-08-03T17:10:46.926Z,33.87
2018-08-03T17:13:19.047Z,33.61
2018-08-03T17:15:51.439Z,33.30
2018-08-03T17:18:23.462Z,33.20
2018-08-03T17:20:55.632Z,32.97
2018-08-03T17:23:27.643Z,32.72
2018-08-03T17:25:59.678Z,32.54
2018-08-03T17:28:31.697Z,32.37
2018-08-03T17:31:03.791Z,32.34
2018-08-03T17:33:35.950Z,32.28
2018-08-03T17:36:07.971Z,32.27
2018-08-03T17:38:40.306Z,32.21
2018-08-03T17:41:13.126Z,32.13
2018-08-03T17:43:45.164Z,32.15
2018-08-03T17:46:17.235Z,32.08
2018-08-03T17:48:49.551Z,32.10
2018-08-03T17:51:21.618Z,31.96
2018-08-03T17:53:53.623Z,31.44
2018-08-03T17:56:25.681Z,31.13
2018-08-03T17:58:57.811Z,30.91
2018-08-03T18:01:29.984Z,30.66
2018-08-03T18:04:02.042Z,30.38
2018-08-03T18:06:34.058Z,30.19
2018-08-03T18:09:06.215Z,30.17
2018-08-03T18:11:38.279Z,30.02
2018-08-03T18:14:10.283Z,29.87
2018-08-03T18:16:42.386Z,29.84
2018-08-03T18:19:14.428Z,29.72
2018-08-03T18:21:46.538Z,29.62
2018-08-03T18:24:18.529Z,29.49
2018-08-03T18:26:50.619Z,29.44
2018-08-03T18:29:22.748Z,29.35
2018-08-03T18:31:54.721Z,29.19
2018-08-03T18:34:26.763Z,29.13
2018-08-03T18:36:58.809Z,29.03
2018-08-03T18:39:30.823Z,28.95
2018-08-03T18:42:02.848Z,28.91
2018-08-03T18:44:34.911Z,28.81
2018-08-03T18:47:06.922Z,28.64
2018-08-03T18:49:38.905Z,28.47
2018-08-03T18:52:10.961Z,28.23
2018-08-03T18:54:42.973Z,28.13
2018-08-03T18:57:14.979Z,28.21
2018-08-03T18:59:47.046Z,28.23
2018-08-03T19:02:19.111Z,28.12
2018-08-03T19:04:51.132Z,27.95
2018-08-03T19:07:23.141Z,27.72
2018-08-03T19:09:55.220Z,27.57
2018-08-03T19:12:27.275Z,27.45
2018-08-03T19:14:59.338Z,27.46
2018-08-03T19:17:31.334Z,27.47
2018-08-03T19:20:04.014Z,27.56
2018-08-03T19:22:36.184Z,27.58
2018-08-03T19:25:08.427Z,27.55
2018-08-03T19:27:40.449Z,27.53
2018-08-03T19:30:12.619Z,27.41
2018-08-03T19:32:44.702Z,27.37
2018-08-03T19:35:16.818Z,27.16
2018-08-03T19:37:49.031Z,27.17
2018-08-03T19:40:21.028Z,27.11
2018-08-03T19:42:53.189Z,27.20
2018-08-03T19:45:25.239Z,27.22
2018-08-03T19:47:57.313Z,27.27
2018-08-03T19:50:29.313Z,27.19
2018-08-03T19:53:01.456Z,27.09
2018-08-03T19:55:33.475Z,27.04
2018-08-03T20:00:55.610Z,27.14
2018-08-03T20:03:27.879Z,27.08
2018-08-03T20:05:59.956Z,27.05
2018-08-03T20:08:32.097Z,26.92
2018-08-03T20:11:04.188Z,26.82
2018-08-03T20:13:36.382Z,26.71
2018-08-03T20:16:08.473Z,26.55
2018-08-03T20:18:40.626Z,26.53
2018-08-03T20:21:12.769Z,26.51
2018-08-03T20:23:44.972Z,26.58
2018-08-03T20:26:17.126Z,26.60
2018-08-03T20:28:49.234Z,26.66
2018-08-03T20:31:21.719Z,26.71
2018-08-03T20:33:53.807Z,26.70
2018-08-03T20:36:25.947Z,26.68
2018-08-03T20:38:58.077Z,26.68
2018-08-03T20:41:30.193Z,26.76
2018-08-03T20:44:02.277Z,26.77
2018-08-03T20:46:34.375Z,26.66
2018-08-03T20:49:06.571Z,26.56
2018-08-03T20:51:38.664Z,26.47
2018-08-03T20:54:10.728Z,26.39
2018-08-03T20:56:42.825Z,26.30
2018-08-03T20:59:14.905Z,26.23
2018-08-03T21:01:47.059Z,26.18
2018-08-03T21:04:19.138Z,26.12
2018-08-03T21:06:51.255Z,26.07
2018-08-03T21:09:23.325Z,26.11
2018-08-03T21:11:55.382Z,26.03
2018-08-03T21:14:28.473Z,25.99
2018-08-03T21:17:00.577Z,26.02
2018-08-03T21:19:32.684Z,26.00
2018-08-03T21:22:04.808Z,25.98
2018-08-03T21:24:37.549Z,25.97
2018-08-03T21:27:09.647Z,26.08
2018-08-03T21:29:41.729Z,26.06
2018-08-03T21:32:13.827Z,26.12
2018-08-03T21:34:45.904Z,26.13
2018-08-03T21:37:17.963Z,26.02
2018-08-03T21:39:50.105Z,25.92
2018-08-03T21:42:22.173Z,25.88
2018-08-03T21:44:54.344Z,25.77
2018-08-03T21:47:26.383Z,25.74
2018-08-03T21:49:58.487Z,25.69
2018-08-03T21:52:30.960Z,25.74
2018-08-03T21:55:03.131Z,25.64
2018-08-03T21:57:35.272Z,25.71
2018-08-03T22:00:09.493Z,25.64
2018-08-03T22:02:41.585Z,25.55
2018-08-03T22:05:13.731Z,25.52
2018-08-03T22:07:46.087Z,25.57
2018-08-03T22:10:18.200Z,25.60
2018-08-03T22:12:50.272Z,25.60
2018-08-03T22:15:22.376Z,25.57
2018-08-03T22:17:54.479Z,25.69
2018-08-03T22:20:26.540Z,25.63
2018-08-03T22:22:58.642Z,25.65
2018-08-03T22:25:30.706Z,25.61
2018-08-03T22:28:02.814Z,25.52
2018-08-03T22:30:34.904Z,25.48
2018-08-03T22:33:06.983Z,25.43
2018-08-03T22:35:39.085Z,25.39
2018-08-03T22:38:11.172Z,25.33
2018-08-03T22:40:43.283Z,25.30
2018-08-03T22:43:15.359Z,25.28
2018-08-03T22:45:53.095Z,25.24
2018-08-03T22:48:25.178Z,25.24
2018-08-03T22:50:57.271Z,25.16
2018-08-03T22:53:29.381Z,25.17
2018-08-03T22:56:01.483Z,25.20
2018-08-03T22:58:33.927Z,25.34
2018-08-03T23:01:06.459Z,25.24
2018-08-03T23:03:38.485Z,25.16
2018-08-03T23:06:10.543Z,25.12
2018-08-03T23:08:42.628Z,25.04
2018-08-03T23:11:14.708Z,25.05
2018-08-03T23:13:46.791Z,24.99
2018-08-03T23:16:18.922Z,24.92
2018-08-03T23:18:51.029Z,24.95
2018-08-03T23:21:23.151Z,24.93
2018-08-03T23:23:55.248Z,24.93
2018-08-03T23:26:27.384Z,25.02
2018-08-03T23:28:59.479Z,24.96
2018-08-03T23:31:31.621Z,24.96
2018-08-03T23:34:03.820Z,24.87
2018-08-03T23:36:35.908Z,24.85
2018-08-03T23:39:08.627Z,24.79
2018-08-03T23:41:40.724Z,24.74
2018-08-03T23:44:12.890Z,24.69
2018-08-03T23:46:45.024Z,24.71
2018-08-03T23:49:17.119Z,24.81
2018-08-03T23:51:49.296Z,24.86
2018-08-03T23:54:21.390Z,24.86
2018-08-03T23:56:53.477Z,24.72
2018-08-03T23:59:25.591Z,24.65
